sensor_id;sensor_type;location;lat;lon;timestamp;P1;durP1;ratioP1;P2;durP2;ratioP2
6438;SDS011;3252;52.540;13.290;2023-03-03T00:00:56;19.50;;;16.80;;
6438;SDS011;3252;52.540;13.290;2023-03-03T00:03:03;18.50;;;15.93;;
6438;SDS011;3252;52.540;13.290;2023-03-03T00:05:09;19.90;;;15.67;;
6438;SDS011;3252;52.540;13.290;2023-03-03T00:07:15;18.47;;;16.30;;
6438;SDS011;3252;52.540;13.290;2023-03-03T00:09:22;22.43;;;15.90;;
6438;SDS011;3252;52.540;13.290;2023-03-03T00:11:27;19.37;;;16.27;;
6438;SDS011;3252;52.540;13.290;2023-03-03T00:13:37;20.60;;;16.97;;
6438;SDS011;3252;52.540;13.290;2023-03-03T00:15:45;19.83;;;16.63;;
6438;SDS011;3252;52.540;13.290;2023-03-03T00:17:49;20.77;;;16.60;;
6438;SDS011;3252;52.540;13.290;2023-03-03T00:19:53;19.53;;;16.43;;
6438;SDS011;3252;52.540;13.290;2023-03-03T00:21:57;19.03;;;16.03;;
6438;SDS011;3252;52.540;13.290;2023-03-03T00:24:19;20.13;;;16.23;;
6438;SDS011;3252;52.540;13.290;2023-03-03T00:26:25;19.80;;;15.97;;
6438;SDS011;3252;52.540;13.290;2023-03-03T00:28:40;17.80;;;15.17;;
6438;SDS011;3252;52.540;13.290;2023-03-03T00:30:47;17.93;;;14.67;;
6438;SDS011;3252;52.540;13.290;2023-03-03T00:32:53;20.03;;;15.63;;
6438;SDS011;3252;52.540;13.290;2023-03-03T00:34:59;20.00;;;16.50;;
6438;SDS011;3252;52.540;13.290;2023-03-03T00:37:24;20.47;;;16.80;;
6438;SDS011;3252;52.540;13.290;2023-03-03T00:39:30;19.10;;;15.87;;
6438;SDS011;3252;52.540;13.290;2023-03-03T00:41:37;20.27;;;16.57;;
6438;SDS011;3252;52.540;13.290;2023-03-03T00:43:48;20.10;;;16.60;;
6438;SDS011;3252;52.540;13.290;2023-03-03T00:45:52;20.43;;;16.47;;
6438;SDS011;3252;52.540;13.290;2023-03-03T00:47:56;20.77;;;17.03;;
6438;SDS011;3252;52.540;13.290;2023-03-03T00:50:17;20.93;;;16.63;;
6438;SDS011;3252;52.540;13.290;2023-03-03T00:52:33;20.83;;;15.67;;
6438;SDS011;3252;52.540;13.290;2023-03-03T00:54:49;20.67;;;16.80;;
6438;SDS011;3252;52.540;13.290;2023-03-03T00:56:57;18.87;;;16.23;;
6438;SDS011;3252;52.540;13.290;2023-03-03T00:59:02;19.83;;;16.07;;
6438;SDS011;3252;52.540;13.290;2023-03-03T01:01:05;21.10;;;16.83;;
6438;SDS011;3252;52.540;13.290;2023-03-03T01:03:19;22.57;;;16.93;;
6438;SDS011;3252;52.540;13.290;2023-03-03T01:05:23;21.73;;;17.00;;
6438;SDS011;3252;52.540;13.290;2023-03-03T01:07:29;21.23;;;16.33;;
6438;SDS011;3252;52.540;13.290;2023-03-03T01:09:35;19.57;;;16.43;;
6438;SDS011;3252;52.540;13.290;2023-03-03T01:11:37;20.67;;;16.23;;
6438;SDS011;3252;52.540;13.290;2023-03-03T01:13:41;18.60;;;15.23;;
6438;SDS011;3252;52.540;13.290;2023-03-03T01:15:45;17.03;;;14.40;;
6438;SDS011;3252;52.540;13.290;2023-03-03T01:17:48;20.33;;;15.87;;
6438;SDS011;3252;52.540;13.290;2023-03-03T01:19:50;19.37;;;15.90;;
6438;SDS011;3252;52.540;13.290;2023-03-03T01:21:53;17.90;;;15.17;;
6438;SDS011;3252;52.540;13.290;2023-03-03T01:23:57;20.23;;;15.57;;
6438;SDS011;3252;52.540;13.290;2023-03-03T01:26:00;18.53;;;15.57;;
6438;SDS011;3252;52.540;13.290;2023-03-03T01:28:04;22.83;;;15.00;;
6438;SDS011;3252;52.540;13.290;2023-03-03T01:30:08;20.27;;;15.43;;
6438;SDS011;3252;52.540;13.290;2023-03-03T01:32:14;17.23;;;14.60;;
6438;SDS011;3252;52.540;13.290;2023-03-03T01:34:17;17.60;;;14.57;;
6438;SDS011;3252;52.540;13.290;2023-03-03T01:36:22;18.30;;;14.27;;
6438;SDS011;3252;52.540;13.290;2023-03-03T01:38:25;17.60;;;14.47;;
6438;SDS011;3252;52.540;13.290;2023-03-03T01:40:29;17.67;;;14.80;;
6438;SDS011;3252;52.540;13.290;2023-03-03T01:42:33;18.43;;;14.97;;
6438;SDS011;3252;52.540;13.290;2023-03-03T01:44:35;18.07;;;14.27;;
6438;SDS011;3252;52.540;13.290;2023-03-03T01:46:47;18.90;;;15.37;;
6438;SDS011;3252;52.540;13.290;2023-03-03T01:48:55;18.40;;;15.07;;
6438;SDS011;3252;52.540;13.290;2023-03-03T01:51:05;18.13;;;15.03;;
6438;SDS011;3252;52.540;13.290;2023-03-03T01:53:16;17.90;;;14.87;;
6438;SDS011;3252;52.540;13.290;2023-03-03T01:55:23;18.00;;;15.00;;
6438;SDS011;3252;52.540;13.290;2023-03-03T01:57:34;19.90;;;14.80;;
6438;SDS011;3252;52.540;13.290;2023-03-03T01:59:49;19.30;;;16.43;;
6438;SDS011;3252;52.540;13.290;2023-03-03T02:01:54;20.43;;;15.90;;
6438;SDS011;3252;52.540;13.290;2023-03-03T02:03:57;19.17;;;15.67;;
6438;SDS011;3252;52.540;13.290;2023-03-03T02:06:00;20.13;;;16.27;;
6438;SDS011;3252;52.540;13.290;2023-03-03T02:08:12;19.77;;;15.00;;
6438;SDS011;3252;52.540;13.290;2023-03-03T02:10:20;20.23;;;16.90;;
6438;SDS011;3252;52.540;13.290;2023-03-03T02:12:27;20.87;;;17.17;;
6438;SDS011;3252;52.540;13.290;2023-03-03T02:14:35;19.77;;;15.77;;
6438;SDS011;3252;52.540;13.290;2023-03-03T02:16:44;18.63;;;16.07;;
6438;SDS011;3252;52.540;13.290;2023-03-03T02:18:58;18.13;;;15.10;;
6438;SDS011;3252;52.540;13.290;2023-03-03T02:21:07;19.63;;;16.27;;
6438;SDS011;3252;52.540;13.290;2023-03-03T02:23:15;19.87;;;16.13;;
6438;SDS011;3252;52.540;13.290;2023-03-03T02:25:28;18.50;;;15.57;;
6438;SDS011;3252;52.540;13.290;2023-03-03T02:27:40;20.50;;;16.93;;
6438;SDS011;3252;52.540;13.290;2023-03-03T02:29:45;19.70;;;15.73;;
6438;SDS011;3252;52.540;13.290;2023-03-03T02:31:47;22.97;;;17.40;;
6438;SDS011;3252;52.540;13.290;2023-03-03T02:33:53;22.23;;;17.40;;
6438;SDS011;3252;52.540;13.290;2023-03-03T02:36:05;20.77;;;16.63;;
6438;SDS011;3252;52.540;13.290;2023-03-03T02:38:12;21.53;;;17.07;;
6438;SDS011;3252;52.540;13.290;2023-03-03T02:40:20;22.00;;;17.23;;
6438;SDS011;3252;52.540;13.290;2023-03-03T02:45:24;25.33;;;18.03;;
6438;SDS011;3252;52.540;13.290;2023-03-03T02:47:36;22.10;;;17.60;;
6438;SDS011;3252;52.540;13.290;2023-03-03T02:49:52;23.40;;;17.87;;
6438;SDS011;3252;52.540;13.290;2023-03-03T02:51:58;24.03;;;18.30;;
6438;SDS011;3252;52.540;13.290;2023-03-03T02:54:16;23.67;;;18.03;;
6438;SDS011;3252;52.540;13.290;2023-03-03T02:56:21;25.73;;;19.53;;
6438;SDS011;3252;52.540;13.290;2023-03-03T02:58:28;23.60;;;17.67;;
6438;SDS011;3252;52.540;13.290;2023-03-03T03:00:35;23.53;;;17.23;;
6438;SDS011;3252;52.540;13.290;2023-03-03T03:02:45;24.00;;;18.43;;
6438;SDS011;3252;52.540;13.290;2023-03-03T03:04:49;24.07;;;18.40;;
6438;SDS011;3252;52.540;13.290;2023-03-03T03:06:55;23.23;;;17.73;;
6438;SDS011;3252;52.540;13.290;2023-03-03T03:09:01;24.00;;;18.37;;
6438;SDS011;3252;52.540;13.290;2023-03-03T03:11:04;23.27;;;18.73;;
6438;SDS011;3252;52.540;13.290;2023-03-03T03:13:13;25.57;;;18.80;;
6438;SDS011;3252;52.540;13.290;2023-03-03T03:15:20;24.13;;;19.07;;
6438;SDS011;3252;52.540;13.290;2023-03-03T03:17:23;24.93;;;19.17;;
6438;SDS011;3252;52.540;13.290;2023-03-03T03:19:27;27.97;;;21.13;;
6438;SDS011;3252;52.540;13.290;2023-03-03T03:21:34;25.77;;;19.87;;
6438;SDS011;3252;52.540;13.290;2023-03-03T03:23:39;24.43;;;19.03;;
6438;SDS011;3252;52.540;13.290;2023-03-03T03:25:42;23.40;;;19.37;;
6438;SDS011;3252;52.540;13.290;2023-03-03T03:27:55;26.50;;;19.07;;
6438;SDS011;3252;52.540;13.290;2023-03-03T03:30:07;26.10;;;19.17;;
6438;SDS011;3252;52.540;13.290;2023-03-03T03:32:13;26.00;;;19.53;;
6438;SDS011;3252;52.540;13.290;2023-03-03T03:34:21;27.17;;;19.70;;
6438;SDS011;3252;52.540;13.290;2023-03-03T03:36:28;29.60;;;20.17;;
6438;SDS011;3252;52.540;13.290;2023-03-03T03:38:30;27.13;;;20.20;;
6438;SDS011;3252;52.540;13.290;2023-03-03T03:40:34;26.93;;;19.30;;
6438;SDS011;3252;52.540;13.290;2023-03-03T03:42:37;24.43;;;18.73;;
6438;SDS011;3252;52.540;13.290;2023-03-03T03:44:42;25.27;;;18.87;;
6438;SDS011;3252;52.540;13.290;2023-03-03T03:46:44;24.10;;;18.10;;
6438;SDS011;3252;52.540;13.290;2023-03-03T03:48:48;25.17;;;17.53;;
6438;SDS011;3252;52.540;13.290;2023-03-03T03:50:55;24.50;;;15.60;;
6438;SDS011;3252;52.540;13.290;2023-03-03T03:53:02;21.93;;;16.47;;
6438;SDS011;3252;52.540;13.290;2023-03-03T03:55:07;19.67;;;15.03;;
6438;SDS011;3252;52.540;13.290;2023-03-03T03:57:12;21.60;;;14.93;;
6438;SDS011;3252;52.540;13.290;2023-03-03T03:59:17;19.87;;;14.87;;
6438;SDS011;3252;52.540;13.290;2023-03-03T04:01:25;20.00;;;15.63;;
6438;SDS011;3252;52.540;13.290;2023-03-03T04:03:28;21.63;;;15.40;;
6438;SDS011;3252;52.540;13.290;2023-03-03T04:05:35;24.23;;;16.33;;
6438;SDS011;3252;52.540;13.290;2023-03-03T04:07:43;23.80;;;17.03;;
6438;SDS011;3252;52.540;13.290;2023-03-03T04:09:51;22.60;;;16.83;;
6438;SDS011;3252;52.540;13.290;2023-03-03T04:11:56;24.67;;;17.33;;
6438;SDS011;3252;52.540;13.290;2023-03-03T04:14:03;28.07;;;18.20;;
6438;SDS011;3252;52.540;13.290;2023-03-03T04:16:08;24.43;;;16.97;;
6438;SDS011;3252;52.540;13.290;2023-03-03T04:18:12;21.50;;;16.77;;
6438;SDS011;3252;52.540;13.290;2023-03-03T04:20:20;21.90;;;16.60;;
6438;SDS011;3252;52.540;13.290;2023-03-03T04:22:24;24.20;;;18.00;;
6438;SDS011;3252;52.540;13.290;2023-03-03T04:24:27;26.80;;;17.93;;
6438;SDS011;3252;52.540;13.290;2023-03-03T04:26:37;24.57;;;17.37;;
6438;SDS011;3252;52.540;13.290;2023-03-03T04:28:39;25.60;;;18.67;;
6438;SDS011;3252;52.540;13.290;2023-03-03T04:30:42;24.47;;;17.83;;
6438;SDS011;3252;52.540;13.290;2023-03-03T04:32:49;22.93;;;16.50;;
6438;SDS011;3252;52.540;13.290;2023-03-03T04:34:55;25.37;;;16.83;;
6438;SDS011;3252;52.540;13.290;2023-03-03T04:37:03;21.33;;;17.23;;
6438;SDS011;3252;52.540;13.290;2023-03-03T04:39:07;24.73;;;16.00;;
6438;SDS011;3252;52.540;13.290;2023-03-03T04:41:12;30.43;;;17.17;;
6438;SDS011;3252;52.540;13.290;2023-03-03T04:43:18;21.80;;;17.23;;
6438;SDS011;3252;52.540;13.290;2023-03-03T04:45:23;25.60;;;17.87;;
6438;SDS011;3252;52.540;13.290;2023-03-03T04:47:28;29.37;;;18.60;;
6438;SDS011;3252;52.540;13.290;2023-03-03T04:49:32;24.47;;;18.03;;
6438;SDS011;3252;52.540;13.290;2023-03-03T04:51:38;24.30;;;17.93;;
6438;SDS011;3252;52.540;13.290;2023-03-03T04:53:44;25.53;;;17.43;;
6438;SDS011;3252;52.540;13.290;2023-03-03T04:55:51;24.30;;;18.17;;
6438;SDS011;3252;52.540;13.290;2023-03-03T04:57:59;26.47;;;18.50;;
6438;SDS011;3252;52.540;13.290;2023-03-03T05:00:11;27.40;;;18.77;;
6438;SDS011;3252;52.540;13.290;2023-03-03T05:02:17;29.57;;;19.80;;
6438;SDS011;3252;52.540;13.290;2023-03-03T05:04:21;28.97;;;20.33;;
6438;SDS011;3252;52.540;13.290;2023-03-03T05:06:24;27.30;;;19.73;;
6438;SDS011;3252;52.540;13.290;2023-03-03T05:08:27;27.80;;;20.03;;
6438;SDS011;3252;52.540;13.290;2023-03-03T05:10:30;34.20;;;22.43;;
6438;SDS011;3252;52.540;13.290;2023-03-03T05:12:34;29.10;;;21.13;;
6438;SDS011;3252;52.540;13.290;2023-03-03T05:14:39;31.93;;;23.57;;
6438;SDS011;3252;52.540;13.290;2023-03-03T05:16:42;31.90;;;21.40;;
6438;SDS011;3252;52.540;13.290;2023-03-03T05:18:44;25.57;;;19.00;;
6438;SDS011;3252;52.540;13.290;2023-03-03T05:20:47;36.77;;;25.70;;
6438;SDS011;3252;52.540;13.290;2023-03-03T05:22:52;27.40;;;20.33;;
6438;SDS011;3252;52.540;13.290;2023-03-03T05:24:54;33.37;;;21.90;;
6438;SDS011;3252;52.540;13.290;2023-03-03T05:26:57;28.83;;;20.40;;
6438;SDS011;3252;52.540;13.290;2023-03-03T05:29:01;31.20;;;18.33;;
6438;SDS011;3252;52.540;13.290;2023-03-03T05:31:04;25.57;;;17.53;;
6438;SDS011;3252;52.540;13.290;2023-03-03T05:33:06;25.43;;;17.33;;
6438;SDS011;3252;52.540;13.290;2023-03-03T05:35:12;24.60;;;17.17;;
6438;SDS011;3252;52.540;13.290;2023-03-03T05:37:23;23.23;;;16.50;;
6438;SDS011;3252;52.540;13.290;2023-03-03T05:39:25;21.80;;;16.60;;
6438;SDS011;3252;52.540;13.290;2023-03-03T05:41:27;24.37;;;17.00;;
6438;SDS011;3252;52.540;13.290;2023-03-03T05:43:30;25.10;;;17.77;;
6438;SDS011;3252;52.540;13.290;2023-03-03T05:45:33;24.43;;;16.03;;
6438;SDS011;3252;52.540;13.290;2023-03-03T05:47:36;22.20;;;16.67;;
6438;SDS011;3252;52.540;13.290;2023-03-03T05:49:38;21.50;;;15.87;;
6438;SDS011;3252;52.540;13.290;2023-03-03T05:51:40;21.70;;;16.30;;
6438;SDS011;3252;52.540;13.290;2023-03-03T05:53:43;25.47;;;16.80;;
6438;SDS011;3252;52.540;13.290;2023-03-03T05:55:45;25.30;;;17.77;;
6438;SDS011;3252;52.540;13.290;2023-03-03T05:57:47;19.87;;;15.87;;
6438;SDS011;3252;52.540;13.290;2023-03-03T05:59:50;20.47;;;16.00;;
6438;SDS011;3252;52.540;13.290;2023-03-03T06:01:53;32.97;;;15.53;;
6438;SDS011;3252;52.540;13.290;2023-03-03T06:03:56;20.57;;;15.13;;
6438;SDS011;3252;52.540;13.290;2023-03-03T06:05:58;22.00;;;14.17;;
6438;SDS011;3252;52.540;13.290;2023-03-03T06:08:00;23.77;;;14.70;;
6438;SDS011;3252;52.540;13.290;2023-03-03T06:10:03;19.93;;;14.93;;
6438;SDS011;3252;52.540;13.290;2023-03-03T06:12:09;28.77;;;15.47;;
6438;SDS011;3252;52.540;13.290;2023-03-03T06:14:11;24.67;;;15.73;;
6438;SDS011;3252;52.540;13.290;2023-03-03T06:16:14;19.87;;;14.40;;
6438;SDS011;3252;52.540;13.290;2023-03-03T06:18:17;19.73;;;15.17;;
6438;SDS011;3252;52.540;13.290;2023-03-03T06:20:20;18.43;;;14.13;;
6438;SDS011;3252;52.540;13.290;2023-03-03T06:22:22;18.83;;;14.40;;
6438;SDS011;3252;52.540;13.290;2023-03-03T06:24:25;22.10;;;14.63;;
6438;SDS011;3252;52.540;13.290;2023-03-03T06:26:30;26.27;;;15.10;;
6438;SDS011;3252;52.540;13.290;2023-03-03T06:28:33;20.90;;;14.67;;
6438;SDS011;3252;52.540;13.290;2023-03-03T06:30:35;19.57;;;14.50;;
6438;SDS011;3252;52.540;13.290;2023-03-03T06:32:37;21.27;;;15.23;;
6438;SDS011;3252;52.540;13.290;2023-03-03T06:34:41;21.67;;;15.30;;
6438;SDS011;3252;52.540;13.290;2023-03-03T06:36:44;25.90;;;16.73;;
6438;SDS011;3252;52.540;13.290;2023-03-03T06:38:46;22.10;;;16.37;;
6438;SDS011;3252;52.540;13.290;2023-03-03T06:40:49;22.87;;;16.30;;
6438;SDS011;3252;52.540;13.290;2023-03-03T06:42:51;28.00;;;18.00;;
6438;SDS011;3252;52.540;13.290;2023-03-03T06:44:53;24.83;;;16.87;;
6438;SDS011;3252;52.540;13.290;2023-03-03T06:46:58;28.23;;;18.93;;
6438;SDS011;3252;52.540;13.290;2023-03-03T06:49:01;27.57;;;19.00;;
6438;SDS011;3252;52.540;13.290;2023-03-03T06:51:09;26.60;;;18.03;;
6438;SDS011;3252;52.540;13.290;2023-03-03T06:53:20;26.00;;;18.60;;
6438;SDS011;3252;52.540;13.290;2023-03-03T06:55:22;25.50;;;18.27;;
6438;SDS011;3252;52.540;13.290;2023-03-03T06:57:26;28.97;;;19.50;;
6438;SDS011;3252;52.540;13.290;2023-03-03T06:59:30;31.10;;;19.03;;
6438;SDS011;3252;52.540;13.290;2023-03-03T07:01:33;35.23;;;23.17;;
6438;SDS011;3252;52.540;13.290;2023-03-03T07:03:37;29.97;;;20.30;;
6438;SDS011;3252;52.540;13.290;2023-03-03T07:05:40;26.23;;;17.43;;
6438;SDS011;3252;52.540;13.290;2023-03-03T07:07:44;26.67;;;18.93;;
6438;SDS011;3252;52.540;13.290;2023-03-03T07:09:47;25.30;;;17.83;;
6438;SDS011;3252;52.540;13.290;2023-03-03T07:11:55;24.57;;;17.53;;
6438;SDS011;3252;52.540;13.290;2023-03-03T07:14:02;26.83;;;17.33;;
6438;SDS011;3252;52.540;13.290;2023-03-03T07:16:11;26.47;;;18.03;;
6438;SDS011;3252;52.540;13.290;2023-03-03T07:18:22;29.37;;;18.23;;
6438;SDS011;3252;52.540;13.290;2023-03-03T07:20:34;29.10;;;18.03;;
6438;SDS011;3252;52.540;13.290;2023-03-03T07:22:38;26.07;;;17.97;;
6438;SDS011;3252;52.540;13.290;2023-03-03T07:24:42;27.37;;;17.70;;
6438;SDS011;3252;52.540;13.290;2023-03-03T07:26:46;27.13;;;17.73;;
6438;SDS011;3252;52.540;13.290;2023-03-03T07:28:51;26.97;;;18.20;;
6438;SDS011;3252;52.540;13.290;2023-03-03T07:30:56;31.83;;;20.13;;
6438;SDS011;3252;52.540;13.290;2023-03-03T07:32:58;24.07;;;16.50;;
6438;SDS011;3252;52.540;13.290;2023-03-03T07:35:25;25.77;;;18.30;;
6438;SDS011;3252;52.540;13.290;2023-03-03T07:37:34;26.03;;;17.63;;
6438;SDS011;3252;52.540;13.290;2023-03-03T07:39:38;21.43;;;15.90;;
6438;SDS011;3252;52.540;13.290;2023-03-03T07:41:48;24.13;;;16.77;;
6438;SDS011;3252;52.540;13.290;2023-03-03T07:43:51;24.67;;;16.40;;
6438;SDS011;3252;52.540;13.290;2023-03-03T07:45:56;23.00;;;16.57;;
6438;SDS011;3252;52.540;13.290;2023-03-03T07:48:15;23.83;;;16.30;;
6438;SDS011;3252;52.540;13.290;2023-03-03T07:50:25;23.17;;;16.47;;
6438;SDS011;3252;52.540;13.290;2023-03-03T07:52:31;25.73;;;16.83;;
6438;SDS011;3252;52.540;13.290;2023-03-03T07:54:41;26.60;;;17.63;;
6438;SDS011;3252;52.540;13.290;2023-03-03T07:56:45;25.87;;;17.50;;
6438;SDS011;3252;52.540;13.290;2023-03-03T07:58:51;23.27;;;16.80;;
6438;SDS011;3252;52.540;13.290;2023-03-03T08:03:28;23.07;;;15.93;;
6438;SDS011;3252;52.540;13.290;2023-03-03T08:05:33;23.63;;;14.33;;
6438;SDS011;3252;52.540;13.290;2023-03-03T08:07:37;22.03;;;14.60;;
6438;SDS011;3252;52.540;13.290;2023-03-03T08:09:44;21.17;;;14.73;;
6438;SDS011;3252;52.540;13.290;2023-03-03T08:11:52;18.77;;;13.47;;
6438;SDS011;3252;52.540;13.290;2023-03-03T08:14:00;21.00;;;12.60;;
6438;SDS011;3252;52.540;13.290;2023-03-03T08:16:03;22.13;;;15.97;;
6438;SDS011;3252;52.540;13.290;2023-03-03T08:18:27;25.23;;;15.97;;
6438;SDS011;3252;52.540;13.290;2023-03-03T08:20:43;27.80;;;18.20;;
6438;SDS011;3252;52.540;13.290;2023-03-03T08:22:47;20.27;;;15.00;;
6438;SDS011;3252;52.540;13.290;2023-03-03T08:24:50;16.80;;;12.67;;
6438;SDS011;3252;52.540;13.290;2023-03-03T08:26:53;16.67;;;12.10;;
6438;SDS011;3252;52.540;13.290;2023-03-03T08:28:56;15.63;;;12.07;;
6438;SDS011;3252;52.540;13.290;2023-03-03T08:31:02;16.33;;;12.47;;
6438;SDS011;3252;52.540;13.290;2023-03-03T08:33:04;18.53;;;12.50;;
6438;SDS011;3252;52.540;13.290;2023-03-03T08:35:07;18.40;;;11.60;;
6438;SDS011;3252;52.540;13.290;2023-03-03T08:37:10;15.27;;;11.47;;
6438;SDS011;3252;52.540;13.290;2023-03-03T08:39:12;14.67;;;10.80;;
6438;SDS011;3252;52.540;13.290;2023-03-03T08:41:15;14.47;;;10.80;;
6438;SDS011;3252;52.540;13.290;2023-03-03T08:43:17;14.07;;;10.80;;
6438;SDS011;3252;52.540;13.290;2023-03-03T08:45:22;14.40;;;11.50;;
6438;SDS011;3252;52.540;13.290;2023-03-03T08:47:26;17.50;;;11.77;;
6438;SDS011;3252;52.540;13.290;2023-03-03T08:49:28;15.90;;;11.83;;
6438;SDS011;3252;52.540;13.290;2023-03-03T08:51:31;14.47;;;11.07;;
6438;SDS011;3252;52.540;13.290;2023-03-03T08:53:34;14.50;;;11.13;;
6438;SDS011;3252;52.540;13.290;2023-03-03T08:55:37;17.27;;;11.70;;
6438;SDS011;3252;52.540;13.290;2023-03-03T08:57:40;15.73;;;11.63;;
6438;SDS011;3252;52.540;13.290;2023-03-03T08:59:42;13.93;;;11.60;;
6438;SDS011;3252;52.540;13.290;2023-03-03T09:01:47;16.87;;;12.20;;
6438;SDS011;3252;52.540;13.290;2023-03-03T09:03:50;16.87;;;12.47;;
6438;SDS011;3252;52.540;13.290;2023-03-03T09:05:53;15.90;;;12.23;;
6438;SDS011;3252;52.540;13.290;2023-03-03T09:07:55;14.10;;;11.23;;
6438;SDS011;3252;52.540;13.290;2023-03-03T09:09:58;16.13;;;11.83;;
6438;SDS011;3252;52.540;13.290;2023-03-03T09:12:14;14.97;;;10.67;;
6438;SDS011;3252;52.540;13.290;2023-03-03T09:14:19;13.23;;;10.30;;
6438;SDS011;3252;52.540;13.290;2023-03-03T09:16:22;12.97;;;10.70;;
6438;SDS011;3252;52.540;13.290;2023-03-03T09:18:26;14.20;;;10.50;;
6438;SDS011;3252;52.540;13.290;2023-03-03T09:20:35;15.37;;;10.73;;
6438;SDS011;3252;52.540;13.290;2023-03-03T09:22:39;12.57;;;9.70;;
6438;SDS011;3252;52.540;13.290;2023-03-03T09:24:41;13.50;;;10.27;;
6438;SDS011;3252;52.540;13.290;2023-03-03T09:26:44;13.53;;;10.23;;
6438;SDS011;3252;52.540;13.290;2023-03-03T09:28:47;14.30;;;10.20;;
6438;SDS011;3252;52.540;13.290;2023-03-03T09:30:50;16.70;;;11.47;;
6438;SDS011;3252;52.540;13.290;2023-03-03T09:32:54;17.87;;;13.37;;
6438;SDS011;3252;52.540;13.290;2023-03-03T09:34:58;20.13;;;13.57;;
6438;SDS011;3252;52.540;13.290;2023-03-03T09:37:11;15.33;;;11.23;;
6438;SDS011;3252;52.540;13.290;2023-03-03T09:39:20;15.03;;;11.30;;
6438;SDS011;3252;52.540;13.290;2023-03-03T09:46:37;18.50;;;12.57;;
6438;SDS011;3252;52.540;13.290;2023-03-03T09:48:49;16.90;;;12.03;;
6438;SDS011;3252;52.540;13.290;2023-03-03T09:51:06;16.40;;;12.40;;
6438;SDS011;3252;52.540;13.290;2023-03-03T09:53:27;18.53;;;12.63;;
6438;SDS011;3252;52.540;13.290;2023-03-03T09:55:40;17.73;;;12.13;;
6438;SDS011;3252;52.540;13.290;2023-03-03T10:00:27;13.60;;;10.97;;
6438;SDS011;3252;52.540;13.290;2023-03-03T10:02:42;13.80;;;11.10;;
6438;SDS011;3252;52.540;13.290;2023-03-03T10:04:56;18.50;;;11.97;;
6438;SDS011;3252;52.540;13.290;2023-03-03T10:07:11;14.63;;;11.30;;
6438;SDS011;3252;52.540;13.290;2023-03-03T10:09:32;16.63;;;10.70;;
6438;SDS011;3252;52.540;13.290;2023-03-03T10:11:43;17.10;;;12.60;;
6438;SDS011;3252;52.540;13.290;2023-03-03T10:13:54;20.23;;;12.70;;
6438;SDS011;3252;52.540;13.290;2023-03-03T10:18:46;20.23;;;13.45;;
6438;SDS011;3252;52.540;13.290;2023-03-03T10:21:01;20.00;;;12.13;;
6438;SDS011;3252;52.540;13.290;2023-03-03T10:23:12;14.27;;;11.40;;
6438;SDS011;3252;52.540;13.290;2023-03-03T10:25:27;18.80;;;12.80;;
6438;SDS011;3252;52.540;13.290;2023-03-03T10:27:40;17.90;;;11.77;;
6438;SDS011;3252;52.540;13.290;2023-03-03T10:29:54;16.93;;;11.83;;
6438;SDS011;3252;52.540;13.290;2023-03-03T10:34:46;17.67;;;12.93;;
6438;SDS011;3252;52.540;13.290;2023-03-03T10:36:56;20.63;;;13.30;;
6438;SDS011;3252;52.540;13.290;2023-03-03T10:39:09;17.57;;;12.57;;
6438;SDS011;3252;52.540;13.290;2023-03-03T10:41:31;25.80;;;16.17;;
6438;SDS011;3252;52.540;13.290;2023-03-03T10:43:49;22.77;;;15.50;;
6438;SDS011;3252;52.540;13.290;2023-03-03T10:46:08;20.47;;;14.63;;
6438;SDS011;3252;52.540;13.290;2023-03-03T10:51:03;22.93;;;15.50;;
6438;SDS011;3252;52.540;13.290;2023-03-03T10:53:20;23.97;;;15.63;;
6438;SDS011;3252;52.540;13.290;2023-03-03T10:55:33;22.33;;;14.83;;
6438;SDS011;3252;52.540;13.290;2023-03-03T10:57:42;25.17;;;15.33;;
6438;SDS011;3252;52.540;13.290;2023-03-03T10:59:57;21.77;;;15.37;;
6438;SDS011;3252;52.540;13.290;2023-03-03T11:02:17;22.50;;;15.43;;
6438;SDS011;3252;52.540;13.290;2023-03-03T11:07:07;24.27;;;15.97;;
6438;SDS011;3252;52.540;13.290;2023-03-03T11:09:20;27.77;;;16.67;;
6438;SDS011;3252;52.540;13.290;2023-03-03T11:11:36;25.67;;;17.07;;
6438;SDS011;3252;52.540;13.290;2023-03-03T11:13:48;24.03;;;16.67;;
6438;SDS011;3252;52.540;13.290;2023-03-03T11:16:02;24.90;;;16.80;;
6438;SDS011;3252;52.540;13.290;2023-03-03T11:18:16;31.97;;;20.40;;
6438;SDS011;3252;52.540;13.290;2023-03-03T11:20:28;34.03;;;19.80;;
6438;SDS011;3252;52.540;13.290;2023-03-03T11:22:38;27.87;;;17.63;;
6438;SDS011;3252;52.540;13.290;2023-03-03T11:24:52;29.13;;;19.20;;
6438;SDS011;3252;52.540;13.290;2023-03-03T11:27:10;26.47;;;18.47;;
6438;SDS011;3252;52.540;13.290;2023-03-03T11:29:26;25.97;;;16.93;;
6438;SDS011;3252;52.540;13.290;2023-03-03T11:31:36;27.43;;;17.77;;
6438;SDS011;3252;52.540;13.290;2023-03-03T11:33:43;23.90;;;16.17;;
6438;SDS011;3252;52.540;13.290;2023-03-03T11:35:57;26.63;;;18.50;;
6438;SDS011;3252;52.540;13.290;2023-03-03T11:38:15;24.73;;;16.90;;
6438;SDS011;3252;52.540;13.290;2023-03-03T11:40:41;26.20;;;16.90;;
6438;SDS011;3252;52.540;13.290;2023-03-03T11:42:57;23.23;;;15.93;;
6438;SDS011;3252;52.540;13.290;2023-03-03T11:45:10;21.50;;;15.20;;
6438;SDS011;3252;52.540;13.290;2023-03-03T11:47:21;24.63;;;16.27;;
6438;SDS011;3252;52.540;13.290;2023-03-03T11:49:27;24.47;;;17.67;;
6438;SDS011;3252;52.540;13.290;2023-03-03T11:51:36;25.03;;;15.63;;
6438;SDS011;3252;52.540;13.290;2023-03-03T11:53:54;27.20;;;16.60;;
6438;SDS011;3252;52.540;13.290;2023-03-03T11:56:02;28.23;;;17.20;;
6438;SDS011;3252;52.540;13.290;2023-03-03T11:58:19;29.53;;;18.00;;
6438;SDS011;3252;52.540;13.290;2023-03-03T12:00:28;25.70;;;17.63;;
6438;SDS011;3252;52.540;13.290;2023-03-03T12:02:46;23.90;;;16.77;;
6438;SDS011;3252;52.540;13.290;2023-03-03T12:05:15;29.00;;;16.30;;
6438;SDS011;3252;52.540;13.290;2023-03-03T12:07:29;27.87;;;16.27;;
6438;SDS011;3252;52.540;13.290;2023-03-03T12:09:38;25.50;;;16.10;;
6438;SDS011;3252;52.540;13.290;2023-03-03T12:11:48;25.37;;;16.63;;
6438;SDS011;3252;52.540;13.290;2023-03-03T12:13:56;22.53;;;15.70;;
6438;SDS011;3252;52.540;13.290;2023-03-03T12:16:05;23.30;;;15.50;;
6438;SDS011;3252;52.540;13.290;2023-03-03T12:18:34;26.37;;;16.53;;
6438;SDS011;3252;52.540;13.290;2023-03-03T12:20:55;28.43;;;18.00;;
6438;SDS011;3252;52.540;13.290;2023-03-03T12:23:16;29.07;;;18.13;;
6438;SDS011;3252;52.540;13.290;2023-03-03T12:25:42;26.23;;;17.60;;
6438;SDS011;3252;52.540;13.290;2023-03-03T12:27:48;27.87;;;16.90;;
6438;SDS011;3252;52.540;13.290;2023-03-03T12:29:58;28.30;;;17.97;;
6438;SDS011;3252;52.540;13.290;2023-03-03T12:32:16;24.00;;;16.80;;
6438;SDS011;3252;52.540;13.290;2023-03-03T12:34:30;28.53;;;16.97;;
6438;SDS011;3252;52.540;13.290;2023-03-03T12:36:44;28.03;;;17.53;;
6438;SDS011;3252;52.540;13.290;2023-03-03T12:39:06;29.40;;;18.20;;
6438;SDS011;3252;52.540;13.290;2023-03-03T12:41:19;31.27;;;18.70;;
6438;SDS011;3252;52.540;13.290;2023-03-03T12:43:33;29.70;;;19.03;;
6438;SDS011;3252;52.540;13.290;2023-03-03T12:45:48;28.30;;;18.90;;
6438;SDS011;3252;52.540;13.290;2023-03-03T12:48:03;30.80;;;20.37;;
6438;SDS011;3252;52.540;13.290;2023-03-03T12:50:22;28.53;;;18.87;;
6438;SDS011;3252;52.540;13.290;2023-03-03T12:52:32;30.20;;;18.53;;
6438;SDS011;3252;52.540;13.290;2023-03-03T12:54:49;32.37;;;19.63;;
6438;SDS011;3252;52.540;13.290;2023-03-03T12:57:03;35.83;;;19.70;;
6438;SDS011;3252;52.540;13.290;2023-03-03T12:59:17;33.60;;;21.30;;
6438;SDS011;3252;52.540;13.290;2023-03-03T13:01:29;28.53;;;18.77;;